Time;durP1;ratioP1;P1;durP2;ratioP2;P2;SDS_P1;SDS_P2;PMS_P1;PMS_P2;Temp;Humidity;BMP_temperature;BMP_pressure;BME280_temperature;BME280_humidity;BME280_pressure;Samples;Min_cycle;Max_cycle;Signal;HPM_P1;HPM_P2
2023/12/29 00:01:38;;;;;;;14.70;3.60;;;;;;;;;;5116777;27;20437;-83
2023/12/29 00:04:04;;;;;;;12.07;3.57;;;;;;;;;;5130714;27;20480;-84
2023/12/29 00:06:31;;;;;;;14.27;3.90;;;;;;;;;;5097813;27;20811;-83
2023/12/29 00:08:57;;;;;;;15.60;4.22;;;;;;;;;;5107988;27;20395;-82
2023/12/29 00:11:23;;;;;;;13.48;3.65;;;;;;;;;;5103425;27;20460;-84
2023/12/29 00:13:49;;;;;;;11.95;3.55;;;;;;;;;;5105591;28;20399;-83
2023/12/29 00:16:16;;;;;;;12.48;3.35;;;;;;;;;;5127793;27;20441;-83
2023/12/29 00:18:42;;;;;;;13.68;3.70;;;;;;;;;;5098745;28;20396;-83
2023/12/29 00:21:08;;;;;;;12.23;3.30;;;;;;;;;;5095136;28;20864;-84
2023/12/29 00:23:34;;;;;;;11.40;3.10;;;;;;;;;;5110955;28;20442;-83
2023/12/29 00:26:03;;;;;;;12.10;3.53;;;;;;;;;;5099374;28;20431;-83
2023/12/29 00:28:40;;;;;;;12.40;3.22;;;;;;;;;;5092767;28;20751;-83
2023/12/29 00:31:09;;;;;;;12.90;3.05;;;;;;;;;;5098260;27;20911;-82
2023/12/29 00:33:38;;;;;;;12.35;3.15;;;;;;;;;;5112012;28;20463;-83
2023/12/29 00:36:07;;;;;;;16.85;3.33;;;;;;;;;;5094867;28;20409;-84
2023/12/29 00:38:37;;;;;;;16.67;3.25;;;;;;;;;;5109941;28;20415;-85
2023/12/29 00:41:03;;;;;;;10.90;3.13;;;;;;;;;;5103081;28;20411;-84
2023/12/29 00:43:41;;;;;;;14.35;3.22;;;;;;;;;;5109753;28;20502;-84
2023/12/29 00:46:15;;;;;;;10.50;2.70;;;;;;;;;;5100993;28;20410;-83
2023/12/29 00:48:42;;;;;;;11.95;3.00;;;;;;;;;;5111298;27;20945;-83
2023/12/29 00:51:08;;;;;;;13.82;3.10;;;;;;;;;;5122084;27;20428;-83
2023/12/29 00:53:37;;;;;;;13.10;3.33;;;;;;;;;;5115568;28;20398;-82
2023/12/29 00:56:04;;;;;;;13.18;3.53;;;;;;;;;;5125994;28;20602;-83
2023/12/29 00:58:30;;;;;;;12.95;3.53;;;;;;;;;;5116237;28;20407;-83
2023/12/29 01:00:59;;;;;;;12.63;3.25;;;;;;;;;;5103288;28;20415;-82
2023/12/29 01:03:25;;;;;;;13.57;3.60;;;;;;;;;;5120148;27;20405;-83
2023/12/29 01:06:47;;;;;;;14.50;4.00;;;;;;;;;;5104490;27;20898;-83
2023/12/29 01:09:24;;;;;;;13.00;3.55;;;;;;;;;;5124687;27;20433;-82
2023/12/29 01:11:53;;;;;;;17.33;4.18;;;;;;;;;;5104313;28;20387;-83
2023/12/29 01:14:19;;;;;;;20.43;4.10;;;;;;;;;;5112959;28;20528;-83
2023/12/29 01:16:51;;;;;;;16.75;4.30;;;;;;;;;;5112215;27;20945;-83
2023/12/29 01:19:21;;;;;;;20.70;4.43;;;;;;;;;;5106232;27;20418;-83
2023/12/29 01:21:56;;;;;;;25.63;4.32;;;;;;;;;;5149839;27;20852;-83
2023/12/29 01:24:28;;;;;;;18.48;3.95;;;;;;;;;;5140294;27;20403;-83
2023/12/29 01:26:54;;;;;;;17.80;4.32;;;;;;;;;;5100236;27;20925;-82
2023/12/29 01:29:20;;;;;;;16.40;4.30;;;;;;;;;;5134081;27;20794;-84
2023/12/29 01:31:47;;;;;;;19.33;4.40;;;;;;;;;;5133920;27;20391;-83
2023/12/29 01:34:13;;;;;;;21.58;4.60;;;;;;;;;;5108021;27;20949;-84
2023/12/29 01:36:40;;;;;;;23.75;5.25;;;;;;;;;;5113291;27;20405;-83
2023/12/29 01:39:06;;;;;;;15.20;3.92;;;;;;;;;;5139840;27;20427;-82
2023/12/29 01:41:32;;;;;;;15.55;4.32;;;;;;;;;;5118204;27;20387;-82
2023/12/29 01:43:58;;;;;;;38.15;6.05;;;;;;;;;;5087956;27;20773;-82
2023/12/29 01:46:28;;;;;;;36.10;7.07;;;;;;;;;;5111024;27;20484;-80
2023/12/29 01:48:55;;;;;;;32.17;7.55;;;;;;;;;;5108666;27;20393;-81
2023/12/29 01:51:25;;;;;;;14.70;3.30;;;;;;;;;;5133821;27;20946;-82
2023/12/29 01:53:53;;;;;;;5.45;1.50;;;;;;;;;;5109442;27;20395;-81
2023/12/29 01:56:21;;;;;;;3.42;1.10;;;;;;;;;;5113380;27;20404;-82
2023/12/29 01:58:56;;;;;;;6.45;1.20;;;;;;;;;;5107166;27;20438;-83
2023/12/29 02:01:22;;;;;;;8.43;1.67;;;;;;;;;;5109414;27;20917;-83
2023/12/29 02:03:51;;;;;;;8.27;1.60;;;;;;;;;;5080749;28;20444;-82
2023/12/29 02:06:18;;;;;;;12.50;2.60;;;;;;;;;;5097469;28;20396;-82
2023/12/29 02:08:45;;;;;;;10.65;2.38;;;;;;;;;;5107787;27;20412;-81
2023/12/29 02:11:11;;;;;;;12.18;2.55;;;;;;;;;;5116858;27;20422;-82
2023/12/29 02:13:43;;;;;;;10.68;2.22;;;;;;;;;;5113295;28;20392;-82
2023/12/29 02:16:19;;;;;;;18.58;2.83;;;;;;;;;;5119723;27;20403;-82
2023/12/29 02:18:52;;;;;;;16.67;3.07;;;;;;;;;;5113043;27;20396;-82
2023/12/29 02:21:28;;;;;;;17.10;3.58;;;;;;;;;;5102794;27;20426;-81
2023/12/29 02:24:02;;;;;;;22.15;3.10;;;;;;;;;;5124101;27;20840;-83
2023/12/29 02:26:30;;;;;;;2.00;1.02;;;;;;;;;;5125758;27;20495;-83
2023/12/29 02:29:00;;;;;;;0.10;0.10;;;;;;;;;;5097484;27;20408;-82
2023/12/29 02:31:28;;;;;;;0.90;0.60;;;;;;;;;;5113244;27;20408;-82
2023/12/29 02:34:23;;;;;;;0.50;0.40;;;;;;;;;;5103505;27;20430;-81
2023/12/29 02:36:50;;;;;;;0.20;0.20;;;;;;;;;;5130168;27;20391;-81
2023/12/29 02:39:18;;;;;;;0.45;0.35;;;;;;;;;;5103183;27;20411;-82
2023/12/29 02:41:46;;;;;;;0.60;0.60;;;;;;;;;;5100655;27;20473;-82
2023/12/29 02:44:22;;;;;;;0.10;0.10;;;;;;;;;;5115495;27;20404;-81
2023/12/29 02:47:04;;;;;;;0.25;0.22;;;;;;;;;;5121995;27;20380;-81
2023/12/29 02:49:33;;;;;;;0.80;0.28;;;;;;;;;;5113396;27;20415;-81
2023/12/29 02:51:59;;;;;;;0.20;0.20;;;;;;;;;;5096362;27;20403;-81
2023/12/29 02:54:28;;;;;;;0.10;0.10;;;;;;;;;;5115794;27;20443;-81
2023/12/29 02:57:13;;;;;;;0.10;0.10;;;;;;;;;;5119304;27;20419;-81
2023/12/29 02:59:42;;;;;;;0.30;0.30;;;;;;;;;;5112498;27;20931;-81
2023/12/29 03:02:11;;;;;;;0.30;0.30;;;;;;;;;;5112633;27;20424;-82
2023/12/29 03:04:38;;;;;;;0.90;0.40;;;;;;;;;;5104163;28;20411;-81
2023/12/29 03:07:04;;;;;;;2.00;0.75;;;;;;;;;;5122458;27;20445;-81
2023/12/29 03:09:30;;;;;;;0.10;0.10;;;;;;;;;;5114697;27;20419;-81
2023/12/29 03:12:01;;;;;;;0.20;0.10;;;;;;;;;;5115415;27;20417;-81
2023/12/29 03:14:34;;;;;;;0.40;0.40;;;;;;;;;;5110574;27;20475;-81
2023/12/29 03:17:20;;;;;;;0.80;0.80;;;;;;;;;;5108586;27;20388;-83
2023/12/29 03:19:55;;;;;;;1.27;0.93;;;;;;;;;;5114958;27;20394;-83
2023/12/29 03:22:32;;;;;;;0.28;0.28;;;;;;;;;;5121857;27;20433;-83
2023/12/29 03:24:58;;;;;;;0.10;0.10;;;;;;;;;;5097342;27;20403;-82
2023/12/29 03:27:24;;;;;;;0.10;0.10;;;;;;;;;;5084723;27;20790;-82
2023/12/29 03:29:53;;;;;;;0.80;0.80;;;;;;;;;;5112684;27;20522;-83
2023/12/29 03:32:19;;;;;;;0.50;0.50;;;;;;;;;;5115618;27;20438;-83
2023/12/29 03:34:45;;;;;;;0.20;0.20;;;;;;;;;;5113836;27;20487;-82
2023/12/29 03:37:14;;;;;;;0.80;0.80;;;;;;;;;;5095032;27;20794;-82
2023/12/29 03:39:41;;;;;;;0.17;0.17;;;;;;;;;;5116879;27;20748;-82
2023/12/29 03:42:22;;;;;;;1.10;1.00;;;;;;;;;;5114878;27;20874;-82
2023/12/29 03:44:52;;;;;;;0.15;0.15;;;;;;;;;;5111824;27;20433;-81
2023/12/29 03:47:23;;;;;;;8.90;2.00;;;;;;;;;;5116300;27;20446;-81
2023/12/29 03:50:06;;;;;;;0.40;0.40;;;;;;;;;;5120746;27;20445;-81
2023/12/29 03:52:38;;;;;;;0.50;0.50;;;;;;;;;;5111339;27;20477;-82
2023/12/29 03:55:18;;;;;;;1.27;1.17;;;;;;;;;;5123831;27;20925;-81
2023/12/29 03:57:49;;;;;;;0.80;0.35;;;;;;;;;;5128674;27;20393;-82
2023/12/29 04:00:15;;;;;;;0.30;0.30;;;;;;;;;;5112980;27;20414;-82
2023/12/29 04:02:41;;;;;;;1.40;0.80;;;;;;;;;;5127040;27;20838;-81
2023/12/29 04:05:09;;;;;;;1.02;1.02;;;;;;;;;;5093954;28;20404;-82
2023/12/29 04:07:41;;;;;;;0.20;0.20;;;;;;;;;;5115477;27;20382;-82
2023/12/29 04:10:10;;;;;;;2.10;0.50;;;;;;;;;;5099091;28;20422;-82
2023/12/29 04:12:36;;;;;;;3.70;0.40;;;;;;;;;;5114457;27;20419;-82
2023/12/29 04:15:10;;;;;;;1.10;0.70;;;;;;;;;;5099909;28;20768;-83
2023/12/29 04:17:36;;;;;;;1.60;0.80;;;;;;;;;;5093950;28;20400;-82
2023/12/29 04:20:02;;;;;;;0.30;0.30;;;;;;;;;;5122984;27;20459;-82
2023/12/29 04:22:31;;;;;;;0.80;0.80;;;;;;;;;;5119905;27;20455;-82
2023/12/29 04:25:10;;;;;;;2.70;1.70;;;;;;;;;;5118147;27;20507;-83
2023/12/29 04:27:42;;;;;;;0.10;0.10;;;;;;;;;;5094081;28;20407;-81
2023/12/29 04:30:11;;;;;;;0.10;0.10;;;;;;;;;;5115996;28;20432;-81
2023/12/29 04:32:40;;;;;;;0.38;0.30;;;;;;;;;;5125998;28;20403;-82
2023/12/29 04:35:28;;;;;;;0.38;0.30;;;;;;;;;;5114451;28;20433;-82
2023/12/29 04:37:58;;;;;;;4.43;1.63;;;;;;;;;;5093514;28;20411;-81
2023/12/29 04:40:42;;;;;;;1.30;1.10;;;;;;;;;;5119822;27;20387;-83
2023/12/29 04:43:20;;;;;;;0.10;0.10;;;;;;;;;;5123944;27;20827;-83
2023/12/29 04:45:47;;;;;;;0.70;0.60;;;;;;;;;;5117784;28;20404;-83
2023/12/29 04:48:14;;;;;;;0.15;0.15;;;;;;;;;;5126530;28;20418;-83
2023/12/29 04:50:40;;;;;;;0.10;0.10;;;;;;;;;;5112150;28;20758;-83
2023/12/29 04:53:08;;;;;;;0.30;0.30;;;;;;;;;;5099129;27;20477;-83
2023/12/29 04:55:37;;;;;;;0.75;0.65;;;;;;;;;;5125355;27;20878;-83
2023/12/29 04:58:15;;;;;;;1.05;0.45;;;;;;;;;;5107562;28;20483;-83
2023/12/29 05:00:49;;;;;;;2.70;0.30;;;;;;;;;;5102012;28;20403;-83
2023/12/29 05:03:18;;;;;;;0.50;0.50;;;;;;;;;;5113535;27;20404;-83
2023/12/29 05:05:44;;;;;;;1.88;0.47;;;;;;;;;;5125261;27;20404;-83
2023/12/29 05:08:21;;;;;;;38.40;5.82;;;;;;;;;;5114566;27;20400;-83
2023/12/29 05:10:56;;;;;;;34.13;6.63;;;;;;;;;;5097762;28;20970;-83
2023/12/29 05:13:33;;;;;;;34.25;5.60;;;;;;;;;;5133127;27;20493;-81
2023/12/29 05:16:10;;;;;;;32.40;5.75;;;;;;;;;;5124128;27;20748;-81
2023/12/29 05:18:46;;;;;;;;;;;;;;;;;;;;;
2023/12/29 05:21:19;;;;;;;24.52;5.90;;;;;;;;;;5136488;27;20586;-81
2023/12/29 05:24:03;;;;;;;;;;;;;;;;;;;;;
2023/12/29 05:26:39;;;;;;;42.47;5.10;;;;;;;;;;5119860;27;20399;-81
2023/12/29 05:29:14;;;;;;;29.98;6.30;;;;;;;;;;5116905;27;20942;-82
2023/12/29 05:31:47;;;;;;;24.45;5.60;;;;;;;;;;5127389;27;20398;-82
2023/12/29 05:34:23;;;;;;;26.38;4.82;;;;;;;;;;5100065;27;20395;-81
2023/12/29 05:37:00;;;;;;;27.00;4.90;;;;;;;;;;5093667;27;20489;-81
2023/12/29 05:39:29;;;;;;;29.52;5.45;;;;;;;;;;5100794;27;20403;-82
2023/12/29 05:41:56;;;;;;;30.42;6.18;;;;;;;;;;5118472;27;20422;-81
2023/12/29 05:47:19;;;;;;;31.23;5.47;;;;;;;;;;5123789;27;20419;-82
2023/12/29 05:49:47;;;;;;;28.70;5.40;;;;;;;;;;5113310;27;20497;-82
2023/12/29 05:52:19;;;;;;;28.48;5.32;;;;;;;;;;5102362;28;20412;-82
2023/12/29 05:54:50;;;;;;;24.73;4.68;;;;;;;;;;5097900;27;20820;-81
2023/12/29 05:57:31;;;;;;;28.73;5.05;;;;;;;;;;5121794;27;20407;-81
2023/12/29 06:00:08;;;;;;;26.23;4.45;;;;;;;;;;5104819;27;20890;-82
2023/12/29 06:02:38;;;;;;;22.03;4.37;;;;;;;;;;5123877;27;20400;-82
2023/12/29 06:05:07;;;;;;;23.05;4.22;;;;;;;;;;5096711;27;20419;-83
2023/12/29 06:07:35;;;;;;;23.92;4.55;;;;;;;;;;5117870;27;20427;-83
2023/12/29 06:10:17;;;;;;;20.60;4.15;;;;;;;;;;5129007;27;20423;-84
2023/12/29 06:12:46;;;;;;;21.10;4.70;;;;;;;;;;5110110;27;20898;-83
2023/12/29 06:15:20;;;;;;;20.52;4.57;;;;;;;;;;5115237;27;20419;-84
2023/12/29 06:17:54;;;;;;;22.58;3.75;;;;;;;;;;5049865;28;20394;-84
2023/12/29 06:20:27;;;;;;;19.27;4.18;;;;;;;;;;5073546;28;20485;-83
2023/12/29 06:22:56;;;;;;;25.73;5.25;;;;;;;;;;5073355;28;20751;-84
2023/12/29 06:25:39;;;;;;;20.52;4.50;;;;;;;;;;5074494;28;20409;-83
2023/12/29 06:28:14;;;;;;;23.70;4.25;;;;;;;;;;5054269;28;20453;-83
2023/12/29 06:30:40;;;;;;;23.42;4.93;;;;;;;;;;5061542;28;20458;-83
2023/12/29 06:33:07;;;;;;;20.60;4.85;;;;;;;;;;5071914;28;20414;-84
2023/12/29 06:35:39;;;;;;;28.20;5.38;;;;;;;;;;5066035;28;20672;-84
2023/12/29 06:38:14;;;;;;;24.38;4.68;;;;;;;;;;5090403;28;20424;-84
2023/12/29 06:40:43;;;;;;;25.97;4.90;;;;;;;;;;5073734;28;20566;-83
2023/12/29 06:43:11;;;;;;;22.27;5.03;;;;;;;;;;5073666;28;20417;-83
2023/12/29 06:45:40;;;;;;;29.57;5.43;;;;;;;;;;5073101;28;20942;-82
2023/12/29 06:48:44;;;;;;;28.00;5.32;;;;;;;;;;5076928;28;20927;-82
2023/12/29 06:51:17;;;;;;;21.90;4.87;;;;;;;;;;5083221;28;20466;-83
2023/12/29 06:53:47;;;;;;;27.52;4.80;;;;;;;;;;5119270;27;20937;-85
2023/12/29 06:59:27;;;;;;;26.90;4.80;;;;;;;;;;5073002;28;20443;-83
2023/12/29 07:02:02;;;;;;;23.48;4.45;;;;;;;;;;5056618;28;20409;-83
2023/12/29 07:04:48;;;;;;;25.75;5.18;;;;;;;;;;5094790;27;20427;-83
2023/12/29 07:07:55;;;;;;;26.35;5.22;;;;;;;;;;5095830;28;20404;-83
2023/12/29 07:10:49;;;;;;;25.00;5.13;;;;;;;;;;5109726;27;20910;-83
2023/12/29 07:13:23;;;;;;;28.17;5.87;;;;;;;;;;5114040;27;20743;-82
2023/12/29 07:15:49;;;;;;;25.38;4.88;;;;;;;;;;5123897;27;20406;-83
2023/12/29 07:18:59;;;;;;;;;;;;;;;;;;;;;
2023/12/29 07:21:20;;;;;;;26.55;5.00;;;;;;;;;;5124748;27;21154;-84
2023/12/29 07:23:58;;;;;;;29.98;5.40;;;;;;;;;;5113180;27;20403;-84
2023/12/29 07:26:45;;;;;;;26.65;4.72;;;;;;;;;;5083550;27;20394;-84
2023/12/29 07:29:20;;;;;;;23.80;4.68;;;;;;;;;;5097881;28;20752;-84
2023/12/29 07:32:01;;;;;;;21.92;4.78;;;;;;;;;;5107020;27;20410;-83
2023/12/29 07:34:31;;;;;;;30.13;5.50;;;;;;;;;;5110224;27;20396;-82
2023/12/29 07:37:10;;;;;;;21.87;5.00;;;;;;;;;;5110668;27;20443;-84
2023/12/29 07:40:01;;;;;;;28.63;4.90;;;;;;;;;;5085786;27;20392;-83
2023/12/29 07:42:55;;;;;;;27.08;5.50;;;;;;;;;;5126075;27;20380;-86
2023/12/29 07:45:24;;;;;;;26.50;5.03;;;;;;;;;;5119805;27;20474;-85
2023/12/29 07:47:50;;;;;;;28.27;5.45;;;;;;;;;;5095005;28;20399;-81
2023/12/29 07:50:23;;;;;;;31.27;5.07;;;;;;;;;;5114618;27;20418;-82
2023/12/29 07:52:55;;;;;;;32.35;5.63;;;;;;;;;;5115147;27;20392;-83
2023/12/29 07:55:31;;;;;;;26.25;4.80;;;;;;;;;;5102708;27;20408;-82
2023/12/29 07:58:10;;;;;;;29.40;5.67;;;;;;;;;;5112579;27;20896;-82
2023/12/29 08:00:42;;;;;;;26.60;5.20;;;;;;;;;;5111996;27;20426;-82
2023/12/29 08:03:27;;;;;;;26.38;4.97;;;;;;;;;;5112459;27;20637;-82
2023/12/29 08:06:02;;;;;;;27.20;4.93;;;;;;;;;;5111249;27;20400;-82
2023/12/29 08:08:40;;;;;;;26.13;5.30;;;;;;;;;;5118993;27;20426;-84
2023/12/29 08:11:15;;;;;;;23.17;5.50;;;;;;;;;;5115967;27;20431;-84
2023/12/29 08:13:47;;;;;;;28.00;5.30;;;;;;;;;;5098357;27;20406;-84
2023/12/29 08:16:32;;;;;;;26.48;5.50;;;;;;;;;;5123844;27;20430;-84
2023/12/29 08:18:58;;;;;;;27.42;5.50;;;;;;;;;;5107491;27;20429;-85
2023/12/29 08:21:39;;;;;;;30.73;5.83;;;;;;;;;;5104993;28;20768;-84
2023/12/29 08:24:26;;;;;;;30.55;6.47;;;;;;;;;;5111939;28;20942;-83
2023/12/29 08:29:54;;;;;;;36.10;5.50;;;;;;;;;;5110528;27;20503;-83
2023/12/29 08:32:39;;;;;;;32.17;4.88;;;;;;;;;;5101325;28;20415;-85
2023/12/29 08:35:08;;;;;;;27.70;5.23;;;;;;;;;;5114189;27;20414;-84
2023/12/29 08:37:46;;;;;;;25.80;5.10;;;;;;;;;;5106474;27;20439;-86
2023/12/29 08:43:31;;;;;;;26.15;6.20;;;;;;;;;;5020034;28;20406;-84
2023/12/29 08:46:22;;;;;;;31.73;5.80;;;;;;;;;;5036106;28;20783;-85
2023/12/29 08:48:51;;;;;;;30.02;5.45;;;;;;;;;;5064570;28;20414;-85
2023/12/29 08:51:29;;;;;;;28.10;6.07;;;;;;;;;;5053602;28;20424;-84
2023/12/29 08:54:07;;;;;;;29.83;6.47;;;;;;;;;;5051766;28;20429;-83
2023/12/29 08:56:39;;;;;;;26.45;6.15;;;;;;;;;;5052223;28;20406;-83
2023/12/29 08:59:07;;;;;;;27.92;5.72;;;;;;;;;;5035098;28;20452;-84
2023/12/29 09:01:36;;;;;;;29.38;6.65;;;;;;;;;;5088734;28;20445;-83
2023/12/29 09:04:09;;;;;;;28.05;5.57;;;;;;;;;;5102839;28;20401;-84
2023/12/29 09:06:55;;;;;;;30.70;5.88;;;;;;;;;;5097496;28;20391;-84
2023/12/29 09:09:42;;;;;;;28.63;4.93;;;;;;;;;;5112830;28;20462;-82
2023/12/29 09:12:24;;;;;;;31.50;5.68;;;;;;;;;;5082602;28;20813;-82
2023/12/29 09:14:59;;;;;;;27.80;5.55;;;;;;;;;;5109437;28;20416;-83
2023/12/29 09:17:28;;;;;;;26.38;5.00;;;;;;;;;;5094126;28;20420;-85
2023/12/29 09:20:00;;;;;;;29.17;4.90;;;;;;;;;;5112151;28;20849;-85
2023/12/29 09:22:39;;;;;;;27.80;4.85;;;;;;;;;;5094773;28;20400;-86
2023/12/29 09:25:09;;;;;;;29.55;5.72;;;;;;;;;;5080158;28;20393;-83
2023/12/29 09:27:44;;;;;;;28.05;5.38;;;;;;;;;;5110295;28;20411;-82
2023/12/29 09:30:13;;;;;;;24.58;5.38;;;;;;;;;;5093351;28;20866;-83
2023/12/29 09:33:00;;;;;;;29.23;5.40;;;;;;;;;;5093257;28;20491;-84
2023/12/29 09:35:30;;;;;;;27.20;4.60;;;;;;;;;;5090245;28;20435;-83
2023/12/29 09:37:59;;;;;;;23.90;5.60;;;;;;;;;;5112038;27;20447;-84
2023/12/29 09:43:45;;;;;;;25.15;4.60;;;;;;;;;;5121950;27;20453;-84
2023/12/29 09:46:13;;;;;;;22.50;4.25;;;;;;;;;;5107214;27;20395;-85
2023/12/29 09:48:42;;;;;;;20.73;4.22;;;;;;;;;;5115318;27;20414;-85
2023/12/29 09:51:10;;;;;;;24.58;5.03;;;;;;;;;;5106504;27;20474;-85
2023/12/29 09:53:37;;;;;;;24.75;4.50;;;;;;;;;;5116638;28;20429;-84
2023/12/29 09:56:04;;;;;;;27.15;4.65;;;;;;;;;;5115971;28;20482;-85
2023/12/29 09:58:30;;;;;;;24.45;6.10;;;;;;;;;;5098651;27;20392;-83
2023/12/29 10:00:56;;;;;;;26.75;5.05;;;;;;;;;;5129319;27;20403;-86
2023/12/29 10:03:23;;;;;;;28.13;5.45;;;;;;;;;;5123200;27;20450;-85
2023/12/29 10:05:51;;;;;;;26.20;5.55;;;;;;;;;;5098070;28;20400;-85
2023/12/29 10:08:17;;;;;;;25.83;4.63;;;;;;;;;;5117683;27;20467;-84
2023/12/29 10:10:44;;;;;;;22.60;4.95;;;;;;;;;;5113302;27;20429;-84
2023/12/29 10:13:17;;;;;;;23.13;4.00;;;;;;;;;;5112308;28;20412;-84
2023/12/29 10:15:52;;;;;;;18.40;3.72;;;;;;;;;;5110569;28;20486;-86
2023/12/29 10:18:47;;;;;;;21.02;3.90;;;;;;;;;;5128133;27;20449;-84
2023/12/29 10:21:31;;;;;;;20.60;4.35;;;;;;;;;;5106888;27;20479;-83
2023/12/29 10:23:57;;;;;;;21.13;4.70;;;;;;;;;;5125170;27;20432;-83
2023/12/29 10:26:23;;;;;;;19.63;3.63;;;;;;;;;;5102034;28;20453;-84
2023/12/29 10:28:50;;;;;;;17.50;3.38;;;;;;;;;;5113718;27;20398;-83
2023/12/29 10:31:16;;;;;;;17.67;3.87;;;;;;;;;;5106088;27;20776;-84
2023/12/29 10:33:42;;;;;;;15.05;3.65;;;;;;;;;;5106394;28;20449;-85
2023/12/29 10:36:10;;;;;;;18.15;3.38;;;;;;;;;;5099193;28;20461;-85
2023/12/29 10:38:42;;;;;;;15.32;3.58;;;;;;;;;;5105377;28;20890;-86
2023/12/29 10:41:16;;;;;;;16.00;4.00;;;;;;;;;;5117304;27;20408;-85
2023/12/29 10:43:44;;;;;;;16.40;3.05;;;;;;;;;;5114353;27;20407;-84
2023/12/29 10:46:10;;;;;;;14.23;3.28;;;;;;;;;;5100399;27;20917;-86
2023/12/29 10:48:37;;;;;;;15.75;3.35;;;;;;;;;;5122740;27;20400;-85
2023/12/29 10:51:12;;;;;;;15.75;3.10;;;;;;;;;;5123868;27;20419;-82
2023/12/29 10:53:38;;;;;;;17.98;3.70;;;;;;;;;;5115582;27;20802;-82
2023/12/29 10:56:19;;;;;;;13.95;3.03;;;;;;;;;;5101918;27;20393;-84
2023/12/29 11:05:13;;;;;;;17.05;3.50;;;;;;;;;;5099639;28;20396;-86
2023/12/29 11:07:40;;;;;;;14.38;3.05;;;;;;;;;;5120240;27;20424;-82
2023/12/29 11:10:07;;;;;;;16.90;3.65;;;;;;;;;;5097226;28;20978;-86
2023/12/29 11:12:34;;;;;;;18.77;3.30;;;;;;;;;;5129666;27;20398;-86
2023/12/29 11:15:10;;;;;;;21.77;3.25;;;;;;;;;;5119668;27;20900;-86
2023/12/29 11:17:39;;;;;;;18.23;3.85;;;;;;;;;;5097628;27;20388;-84
2023/12/29 11:20:05;;;;;;;14.05;3.90;;;;;;;;;;5100204;28;20515;-85
2023/12/29 11:22:32;;;;;;;13.57;2.90;;;;;;;;;;5099392;28;20404;-84
2023/12/29 11:24:59;;;;;;;12.05;3.38;;;;;;;;;;5095659;28;20410;-85
2023/12/29 11:27:29;;;;;;;13.27;2.80;;;;;;;;;;5123637;27;20402;-85
2023/12/29 11:29:56;;;;;;;12.77;2.97;;;;;;;;;;5095606;28;20420;-85
2023/12/29 11:32:28;;;;;;;12.60;3.47;;;;;;;;;;5119859;27;20410;-85
2023/12/29 11:35:13;;;;;;;11.02;2.80;;;;;;;;;;5112686;27;20400;-83
2023/12/29 11:38:01;;;;;;;11.10;2.42;;;;;;;;;;5102257;27;20446;-86
2023/12/29 11:40:42;;;;;;;9.63;2.72;;;;;;;;;;5101598;28;20406;-86
2023/12/29 11:43:16;;;;;;;12.60;2.73;;;;;;;;;;5107174;27;20423;-86
2023/12/29 11:45:42;;;;;;;12.95;2.70;;;;;;;;;;5122712;27;20521;-86
2023/12/29 11:48:08;;;;;;;10.95;2.83;;;;;;;;;;5107029;28;20400;-86
2023/12/29 11:50:36;;;;;;;14.60;3.20;;;;;;;;;;5115979;27;21195;-86
2023/12/29 11:53:03;;;;;;;10.97;2.63;;;;;;;;;;5104852;27;20403;-86
2023/12/29 11:55:39;;;;;;;11.95;3.15;;;;;;;;;;5100990;27;20443;-85
2023/12/29 11:58:28;;;;;;;13.95;2.60;;;;;;;;;;5126115;27;20412;-86
2023/12/29 12:00:54;;;;;;;12.15;2.85;;;;;;;;;;5112090;27;20392;-86
2023/12/29 12:03:27;;;;;;;14.35;3.13;;;;;;;;;;5095345;28;20900;-86
2023/12/29 12:05:55;;;;;;;12.38;2.63;;;;;;;;;;5094787;28;20397;-86
2023/12/29 12:08:39;;;;;;;13.20;3.03;;;;;;;;;;5114399;27;20405;-87
2023/12/29 12:11:24;;;;;;;13.68;2.80;;;;;;;;;;5104643;27;20788;-86
2023/12/29 12:13:50;;;;;;;11.75;2.72;;;;;;;;;;5121017;27;20538;-85
2023/12/29 12:16:42;;;;;;;13.82;2.70;;;;;;;;;;5111610;27;20396;-86
2023/12/29 12:19:11;;;;;;;12.05;3.35;;;;;;;;;;5114450;27;20402;-84
2023/12/29 12:21:38;;;;;;;11.98;2.63;;;;;;;;;;5099866;28;20411;-86
2023/12/29 12:24:04;;;;;;;17.67;2.70;;;;;;;;;;5089350;28;20881;-86
2023/12/29 12:26:31;;;;;;;16.38;3.20;;;;;;;;;;5114589;27;20394;-85
2023/12/29 12:28:57;;;;;;;11.18;2.50;;;;;;;;;;5091619;28;20422;-82
2023/12/29 12:31:23;;;;;;;15.82;3.40;;;;;;;;;;5117075;27;20453;-82
2023/12/29 12:34:02;;;;;;;12.50;3.03;;;;;;;;;;5127995;27;20429;-82
2023/12/29 12:36:28;;;;;;;15.85;3.17;;;;;;;;;;5100710;27;20961;-81
2023/12/29 12:38:58;;;;;;;14.45;3.20;;;;;;;;;;5101739;28;20473;-82
2023/12/29 12:41:24;;;;;;;14.53;3.17;;;;;;;;;;5098639;28;20404;-82
2023/12/29 12:44:02;;;;;;;16.55;3.30;;;;;;;;;;5102795;28;20410;-82
2023/12/29 12:46:28;;;;;;;13.85;3.08;;;;;;;;;;5101260;28;20404;-82
2023/12/29 12:48:55;;;;;;;17.45;3.60;;;;;;;;;;5103932;28;20403;-82
2023/12/29 12:51:22;;;;;;;15.70;5.50;;;;;;;;;;5101217;28;20418;-81
2023/12/29 12:53:49;;;;;;;15.68;3.40;;;;;;;;;;5110113;28;20492;-82
2023/12/29 12:56:16;;;;;;;16.90;2.87;;;;;;;;;;5104313;28;20408;-81
2023/12/29 12:58:43;;;;;;;18.30;3.30;;;;;;;;;;5111055;28;20483;-82
2023/12/29 13:01:14;;;;;;;17.02;3.70;;;;;;;;;;5105289;28;20788;-82
2023/12/29 13:03:40;;;;;;;16.33;3.58;;;;;;;;;;5121194;27;20457;-82
2023/12/29 13:06:07;;;;;;;14.32;2.78;;;;;;;;;;5107338;28;20390;-83
2023/12/29 13:08:33;;;;;;;11.70;2.50;;;;;;;;;;5113663;27;20528;-82
2023/12/29 13:11:00;;;;;;;15.88;4.15;;;;;;;;;;5123326;27;20447;-82
2023/12/29 13:14:00;;;;;;;17.33;3.58;;;;;;;;;;5104409;27;20395;-83
2023/12/29 13:16:33;;;;;;;15.55;2.90;;;;;;;;;;5106754;27;20817;-83
2023/12/29 13:19:15;;;;;;;15.98;2.90;;;;;;;;;;5127423;27;20742;-83
2023/12/29 13:21:42;;;;;;;14.13;2.97;;;;;;;;;;5103322;28;20744;-83
2023/12/29 13:24:08;;;;;;;17.03;3.13;;;;;;;;;;5097660;28;20764;-83
2023/12/29 13:26:34;;;;;;;13.05;2.75;;;;;;;;;;5112882;27;20463;-83
2023/12/29 13:29:00;;;;;;;17.33;3.30;;;;;;;;;;5096926;28;20424;-80
2023/12/29 13:31:30;;;;;;;15.18;2.90;;;;;;;;;;5118448;27;20432;-81
2023/12/29 13:33:56;;;;;;;13.50;2.88;;;;;;;;;;5097395;27;20489;-81
2023/12/29 13:36:41;;;;;;;14.00;2.92;;;;;;;;;;5097989;28;20799;-82
2023/12/29 13:39:10;;;;;;;13.93;2.80;;;;;;;;;;5106520;27;20878;-81
2023/12/29 13:41:37;;;;;;;14.43;2.97;;;;;;;;;;5123021;27;20399;-81
2023/12/29 13:44:07;;;;;;;17.87;3.33;;;;;;;;;;5125113;27;20427;-81
2023/12/29 13:46:33;;;;;;;14.52;3.13;;;;;;;;;;5119281;27;20436;-81
2023/12/29 13:49:00;;;;;;;13.30;2.72;;;;;;;;;;5124942;27;20398;-81
2023/12/29 13:51:26;;;;;;;16.02;3.78;;;;;;;;;;5104649;27;20923;-82
2023/12/29 13:54:03;;;;;;;17.27;3.43;;;;;;;;;;5120846;27;20400;-81
2023/12/29 13:56:31;;;;;;;14.35;3.40;;;;;;;;;;5117410;27;20483;-82
2023/12/29 13:59:04;;;;;;;15.00;2.97;;;;;;;;;;5120687;27;20392;-83
2023/12/29 14:01:38;;;;;;;14.57;3.05;;;;;;;;;;5118111;27;20400;-81
2023/12/29 14:04:12;;;;;;;16.80;3.40;;;;;;;;;;5103651;27;20423;-82
2023/12/29 14:07:02;;;;;;;14.77;2.87;;;;;;;;;;5097920;27;20404;-81
2023/12/29 14:09:46;;;;;;;13.90;3.47;;;;;;;;;;5121123;27;20860;-81
2023/12/29 14:12:13;;;;;;;15.93;3.00;;;;;;;;;;5116471;27;20407;-81
2023/12/29 14:14:39;;;;;;;13.23;3.47;;;;;;;;;;5118418;27;20441;-81
2023/12/29 14:17:05;;;;;;;13.63;3.20;;;;;;;;;;5101727;27;20913;-82
2023/12/29 14:19:37;;;;;;;13.98;3.17;;;;;;;;;;5093853;27;20510;-82
2023/12/29 14:22:03;;;;;;;16.25;2.70;;;;;;;;;;5106086;27;20406;-82
2023/12/29 14:24:37;;;;;;;15.23;3.17;;;;;;;;;;5098904;27;20478;-82
2023/12/29 14:27:03;;;;;;;14.15;2.50;;;;;;;;;;5093826;28;20396;-82
2023/12/29 14:29:31;;;;;;;12.02;2.60;;;;;;;;;;5115993;27;20717;-82
2023/12/29 14:32:00;;;;;;;13.27;2.80;;;;;;;;;;5103125;27;20440;-82
2023/12/29 14:34:26;;;;;;;12.48;3.03;;;;;;;;;;5079074;28;20396;-82
2023/12/29 14:36:53;;;;;;;15.15;3.10;;;;;;;;;;5119652;27;20412;-83
2023/12/29 14:39:20;;;;;;;15.13;3.28;;;;;;;;;;5119410;27;20414;-82
2023/12/29 14:41:50;;;;;;;16.95;2.90;;;;;;;;;;5109221;27;20389;-82
2023/12/29 14:44:36;;;;;;;18.38;3.33;;;;;;;;;;5119666;27;20400;-82
2023/12/29 14:47:21;;;;;;;18.27;2.92;;;;;;;;;;5123047;27;20380;-82
2023/12/29 14:49:47;;;;;;;16.98;3.40;;;;;;;;;;5118310;27;20771;-82
2023/12/29 14:52:19;;;;;;;12.40;2.78;;;;;;;;;;5094460;28;20407;-83
2023/12/29 14:54:45;;;;;;;13.48;2.97;;;;;;;;;;5117587;27;20499;-83
2023/12/29 14:57:12;;;;;;;13.38;2.92;;;;;;;;;;5101108;27;20443;-83
2023/12/29 14:59:41;;;;;;;12.88;3.05;;;;;;;;;;5117769;27;20729;-84
2023/12/29 15:02:19;;;;;;;16.30;3.23;;;;;;;;;;5132878;27;20396;-83
2023/12/29 15:04:45;;;;;;;12.38;3.20;;;;;;;;;;5095097;28;20399;-84
2023/12/29 15:07:13;;;;;;;14.73;2.73;;;;;;;;;;5112084;27;20490;-84
2023/12/29 15:09:56;;;;;;;14.18;3.35;;;;;;;;;;5106827;27;20931;-81
2023/12/29 15:12:23;;;;;;;15.55;3.05;;;;;;;;;;5112802;27;20408;-82
2023/12/29 15:15:10;;;;;;;14.43;2.88;;;;;;;;;;5104981;27;20434;-82
2023/12/29 15:18:00;;;;;;;13.70;2.97;;;;;;;;;;5096132;28;20388;-83
2023/12/29 15:20:52;;;;;;;12.88;3.38;;;;;;;;;;5050302;28;20399;-84
2023/12/29 15:23:19;;;;;;;16.10;3.22;;;;;;;;;;5053966;28;20799;-84
2023/12/29 15:25:48;;;;;;;16.67;3.13;;;;;;;;;;5072175;28;20414;-84
2023/12/29 15:28:21;;;;;;;12.68;2.85;;;;;;;;;;5048236;28;20426;-83